FLIGHT INFORMATION
United Airlines

UAL650

At Arrival Gate

PHNL
 KSFO
DATE: 2019-11-15
GATE: 10
GATE DEPARTURE: 02:15
TAKEOFF: 02:39
DATE: 2019-11-15
GATE:  -
LANDING: 07:19
GATE ARRIVAL: 07:29
FLIGHT DATA
Crew: KYLE RODGERS
Speed: 483 kts Altitude: 35000 ft
Stage Length: 2083 nm
Route: 
Block Time: 5.2 Flight Time: 4.7
Fuel Used: 30935 LB
TRACK DATA
50000 FT1000 KTAltitudeSpeed
AIRCRAFT INFORMATION
Aircraft Type: B739ERBW
Registration: N37419
SELCAL:  MSN/LN: 31666 / 2553
Operator: UNITED AIRLINES
Flights: 10 Block Time: 32 Flight Time: 28.8
Fuel Used: 192577 LB
  • DEPARTURE INFORMATION
    Date: 2019-11-15
    Airport: PHNL
    Gate: 10
    Gate Departure: 02:15
    Takeoff: 02:39
    ARRIVAL INFORMATION
    Date: 2019-11-15
    Airport: KSFO
    Gate:  -
    Landing: 07:19
    Gate Arrival: 07:29
  • FLIGHT DATA
    Crew: KYLE RODGERS
    Speed: 483 kts Altitude: 35000 ft
    Stage Length: 1125 nm
    Route: 
    Block Time: 5.2 Flight Time: 4.7
    Fuel Used: 30935 LB
  • AIRCRAFT INFORMATION
    Aircraft Type: B739ERBW
    Registration: N37419
    SELCAL:  MSN/LN: 31666 / 2553
    Operator: United Airlines
    Flights: 10 Block Time: 32 Flight Time: 28.8
    Fuel Used: 192577 LB

DATALINK LOG | Newest first | Current as of: 2020-05-26 16:18:52
LABEL ID SEQUENCE CONTENT Dn/Up
QD303107:29 11.8▼ Dn
QC204707:19▼ Dn
2U2126KSFO 150456Z 21004KT 9SM FEW009 BKN026 14/09 A3014 RMK AO2 SLP205 T01440094▲ Up
2S2204KSFO▼ Dn
QB403202:39▼ Dn
QA152502:15 42.8▼ Dn
A30726CLEARED TO KSFO VIA MKK4 CLUTS R465 CORTT R465 CREAN R465 CINNY PIRAT2. SQUAWK 1502.▲ Up
B30724PHNL KSFO UAL650 N37419 V ▼ Dn
2U0111PHNL 150053Z 15011KT 10SM FEW025 FEW045 29/21 A2988 RMK AO2 SLP118 T02890211▲ Up
2S0121PHNL▼ Dn
Q05303[LINK ACK]▲ Up
Q05314[LINK TEST]▼ Dn


AIRCRAFT HISTORY
FLIGHT DATE FLIGHT NUMBER ORIGIN DESTINATION ROUTE BLOCK TIME FLIGHT TIME FUEL USED (LB) PILOT
2020-04-06UAL2396KSFO KIAH 3.63.220380Dan Downs
2020-02-22UAL1973KIAH KSFO 4.13.823607Pete Locascio
2020-02-09UAL519KIAD KIAH 3.12.819301Steven Perry
2020-01-20UAL172KBWI KIAD 0.40.22135Michael Roth
2020-01-02UAL172KMEM KBWI 2.11.811499Jhan Jensen
2019-11-23UAL519KIAH KMEM 1.317578Steven Perry
2019-11-16UAL1116KSFO KIAH 3.53.221910Matthew Gales
2019-11-15UAL650PHNL KSFO 5.24.730935Kyle Rodgers
2019-11-13UAL1670KSFO PHNL 5.95.233864Kyle Rodgers
2019-11-12UAL9812KMCI KSFO 3.83.321369Kyle Rodgers